Fifth Ward, Louisiana
Current Conditions -  °F | °C
As of 9:53 AM on Thursday 30 Oct 2014 (Local Time) from KESF Reporting Station
Clear Clear  
Wind Chill: 61°   Ceiling: Unl
Heat Index: 61°   Visibility: 10mi
Dew Point: 49°   Wind: 5mph
Humidity: 64%   Direction: 60°ENE
Pressure: 30.17"   Gusts: NA
Location:  31.175°N, 91.9985°W
Report Text: KESF 301453Z AUTO 06004KT 10SM CLR 16/09 A3017 RMK AO2 SLP217 T01610094 51012
Loading
Personal Weather Stations






























Interactive Weather Map
Tropical Storm Tracking
New forecast layout! Learn more

10-Day Weather Forecast

Advertisements
Track Severe Weather on mobile